sensor_id;sensor_type;location;lat;lon;timestamp;P1;durP1;ratioP1;P2;durP2;ratioP2
58414;SDS011;44210;42.706;18.344;2023-07-02T00:00:02;4.10;;;3.50;;
58414;SDS011;44210;42.706;18.344;2023-07-02T00:02:30;3.40;;;2.78;;
58414;SDS011;44210;42.706;18.344;2023-07-02T00:04:56;4.43;;;2.92;;
58414;SDS011;44210;42.706;18.344;2023-07-02T00:07:22;4.40;;;3.65;;
58414;SDS011;44210;42.706;18.344;2023-07-02T00:09:50;4.72;;;3.42;;
58414;SDS011;44210;42.706;18.344;2023-07-02T00:12:16;3.80;;;3.15;;
58414;SDS011;44210;42.706;18.344;2023-07-02T00:14:43;2.95;;;2.67;;
58414;SDS011;44210;42.706;18.344;2023-07-02T00:17:09;3.63;;;3.30;;
58414;SDS011;44210;42.706;18.344;2023-07-02T00:19:37;6.20;;;3.42;;
58414;SDS011;44210;42.706;18.344;2023-07-02T00:22:07;3.97;;;2.80;;
58414;SDS011;44210;42.706;18.344;2023-07-02T00:24:34;4.00;;;3.15;;
58414;SDS011;44210;42.706;18.344;2023-07-02T00:27:00;4.35;;;3.03;;
58414;SDS011;44210;42.706;18.344;2023-07-02T00:29:26;3.28;;;2.97;;
58414;SDS011;44210;42.706;18.344;2023-07-02T00:31:52;5.45;;;3.53;;
58414;SDS011;44210;42.706;18.344;2023-07-02T00:34:18;4.38;;;3.20;;
58414;SDS011;44210;42.706;18.344;2023-07-02T00:36:44;4.53;;;3.40;;
58414;SDS011;44210;42.706;18.344;2023-07-02T00:39:11;4.63;;;2.88;;
58414;SDS011;44210;42.706;18.344;2023-07-02T00:41:37;3.42;;;2.92;;
58414;SDS011;44210;42.706;18.344;2023-07-02T00:44:03;6.40;;;3.10;;
58414;SDS011;44210;42.706;18.344;2023-07-02T00:46:29;5.55;;;3.35;;
58414;SDS011;44210;42.706;18.344;2023-07-02T00:48:56;4.95;;;3.78;;
58414;SDS011;44210;42.706;18.344;2023-07-02T00:51:23;4.95;;;2.97;;
58414;SDS011;44210;42.706;18.344;2023-07-02T00:53:51;3.75;;;3.20;;
58414;SDS011;44210;42.706;18.344;2023-07-02T00:56:17;7.50;;;3.72;;
58414;SDS011;44210;42.706;18.344;2023-07-02T00:58:45;4.05;;;3.42;;
58414;SDS011;44210;42.706;18.344;2023-07-02T01:01:15;4.90;;;3.53;;
58414;SDS011;44210;42.706;18.344;2023-07-02T01:03:56;4.82;;;3.28;;
58414;SDS011;44210;42.706;18.344;2023-07-02T01:06:24;4.07;;;2.97;;
58414;SDS011;44210;42.706;18.344;2023-07-02T01:08:54;4.05;;;3.00;;
58414;SDS011;44210;42.706;18.344;2023-07-02T01:11:21;6.20;;;3.40;;
58414;SDS011;44210;42.706;18.344;2023-07-02T01:13:48;3.60;;;3.30;;
58414;SDS011;44210;42.706;18.344;2023-07-02T01:16:15;5.45;;;3.55;;
58414;SDS011;44210;42.706;18.344;2023-07-02T01:18:42;4.63;;;3.63;;
58414;SDS011;44210;42.706;18.344;2023-07-02T01:21:08;3.70;;;3.17;;
58414;SDS011;44210;42.706;18.344;2023-07-02T01:23:35;5.88;;;3.30;;
58414;SDS011;44210;42.706;18.344;2023-07-02T01:26:01;4.40;;;3.38;;
58414;SDS011;44210;42.706;18.344;2023-07-02T01:28:34;5.57;;;3.00;;
58414;SDS011;44210;42.706;18.344;2023-07-02T01:31:02;3.92;;;3.40;;
58414;SDS011;44210;42.706;18.344;2023-07-02T01:33:28;6.07;;;3.53;;
58414;SDS011;44210;42.706;18.344;2023-07-02T01:35:54;4.70;;;3.53;;
58414;SDS011;44210;42.706;18.344;2023-07-02T01:38:20;4.03;;;3.55;;
58414;SDS011;44210;42.706;18.344;2023-07-02T01:40:47;6.35;;;3.60;;
58414;SDS011;44210;42.706;18.344;2023-07-02T01:43:13;4.85;;;3.50;;
58414;SDS011;44210;42.706;18.344;2023-07-02T01:45:41;3.65;;;3.03;;
58414;SDS011;44210;42.706;18.344;2023-07-02T01:48:07;5.10;;;3.90;;
58414;SDS011;44210;42.706;18.344;2023-07-02T01:50:33;4.40;;;3.60;;
58414;SDS011;44210;42.706;18.344;2023-07-02T01:52:59;5.35;;;3.33;;
58414;SDS011;44210;42.706;18.344;2023-07-02T01:55:25;4.88;;;4.00;;
58414;SDS011;44210;42.706;18.344;2023-07-02T01:57:51;6.22;;;3.67;;
58414;SDS011;44210;42.706;18.344;2023-07-02T02:00:17;5.55;;;3.47;;
58414;SDS011;44210;42.706;18.344;2023-07-02T02:02:43;5.25;;;3.80;;
58414;SDS011;44210;42.706;18.344;2023-07-02T02:05:09;4.45;;;4.03;;
58414;SDS011;44210;42.706;18.344;2023-07-02T02:07:36;5.18;;;3.47;;
58414;SDS011;44210;42.706;18.344;2023-07-02T02:10:02;6.55;;;3.63;;
58414;SDS011;44210;42.706;18.344;2023-07-02T02:12:29;4.60;;;3.95;;
58414;SDS011;44210;42.706;18.344;2023-07-02T02:14:56;3.70;;;3.28;;
58414;SDS011;44210;42.706;18.344;2023-07-02T02:17:22;4.38;;;3.60;;
58414;SDS011;44210;42.706;18.344;2023-07-02T02:19:51;4.75;;;3.95;;
58414;SDS011;44210;42.706;18.344;2023-07-02T02:22:17;4.28;;;3.35;;
58414;SDS011;44210;42.706;18.344;2023-07-02T02:24:43;6.13;;;3.80;;
58414;SDS011;44210;42.706;18.344;2023-07-02T02:27:09;4.97;;;3.80;;
58414;SDS011;44210;42.706;18.344;2023-07-02T02:29:35;5.50;;;4.43;;
58414;SDS011;44210;42.706;18.344;2023-07-02T02:32:01;4.65;;;3.47;;
58414;SDS011;44210;42.706;18.344;2023-07-02T02:34:27;4.22;;;3.83;;
58414;SDS011;44210;42.706;18.344;2023-07-02T02:36:54;4.90;;;4.22;;
58414;SDS011;44210;42.706;18.344;2023-07-02T02:39:21;6.53;;;4.20;;
58414;SDS011;44210;42.706;18.344;2023-07-02T02:41:47;4.93;;;4.25;;
58414;SDS011;44210;42.706;18.344;2023-07-02T02:44:13;3.88;;;3.47;;
58414;SDS011;44210;42.706;18.344;2023-07-02T02:46:39;3.95;;;3.38;;
58414;SDS011;44210;42.706;18.344;2023-07-02T02:49:05;7.10;;;3.63;;
58414;SDS011;44210;42.706;18.344;2023-07-02T02:51:31;5.63;;;3.35;;
58414;SDS011;44210;42.706;18.344;2023-07-02T02:53:57;4.20;;;3.80;;
58414;SDS011;44210;42.706;18.344;2023-07-02T02:56:23;7.00;;;3.42;;
58414;SDS011;44210;42.706;18.344;2023-07-02T03:20:45;5.75;;;4.32;;
58414;SDS011;44210;42.706;18.344;2023-07-02T03:23:11;4.28;;;3.67;;
58414;SDS011;44210;42.706;18.344;2023-07-02T03:25:37;4.30;;;3.13;;
58414;SDS011;44210;42.706;18.344;2023-07-02T03:28:03;4.15;;;3.72;;
58414;SDS011;44210;42.706;18.344;2023-07-02T03:30:30;5.75;;;3.85;;
58414;SDS011;44210;42.706;18.344;2023-07-02T03:32:56;7.28;;;4.38;;
58414;SDS011;44210;42.706;18.344;2023-07-02T03:35:22;3.97;;;3.58;;
58414;SDS011;44210;42.706;18.344;2023-07-02T03:37:48;4.80;;;3.55;;
58414;SDS011;44210;42.706;18.344;2023-07-02T03:40:14;5.45;;;3.78;;
58414;SDS011;44210;42.706;18.344;2023-07-02T03:42:40;4.30;;;3.80;;
58414;SDS011;44210;42.706;18.344;2023-07-02T03:45:06;4.57;;;3.33;;
58414;SDS011;44210;42.706;18.344;2023-07-02T03:47:32;7.25;;;3.85;;
58414;SDS011;44210;42.706;18.344;2023-07-02T03:49:58;4.57;;;3.60;;
58414;SDS011;44210;42.706;18.344;2023-07-02T03:52:24;6.28;;;3.72;;
58414;SDS011;44210;42.706;18.344;2023-07-02T03:54:50;4.45;;;3.75;;
58414;SDS011;44210;42.706;18.344;2023-07-02T03:57:16;7.63;;;3.75;;
58414;SDS011;44210;42.706;18.344;2023-07-02T03:59:42;5.25;;;3.80;;
58414;SDS011;44210;42.706;18.344;2023-07-02T04:02:09;4.18;;;3.47;;
58414;SDS011;44210;42.706;18.344;2023-07-02T04:04:35;5.78;;;3.72;;
58414;SDS011;44210;42.706;18.344;2023-07-02T04:07:01;6.50;;;3.83;;
58414;SDS011;44210;42.706;18.344;2023-07-02T04:09:27;4.88;;;3.65;;
58414;SDS011;44210;42.706;18.344;2023-07-02T04:11:53;5.13;;;4.05;;
58414;SDS011;44210;42.706;18.344;2023-07-02T04:14:19;3.65;;;3.22;;
58414;SDS011;44210;42.706;18.344;2023-07-02T04:16:45;5.85;;;4.07;;
58414;SDS011;44210;42.706;18.344;2023-07-02T04:19:11;6.35;;;3.50;;
58414;SDS011;44210;42.706;18.344;2023-07-02T04:21:38;3.85;;;3.10;;
58414;SDS011;44210;42.706;18.344;2023-07-02T04:24:04;5.18;;;3.95;;
58414;SDS011;44210;42.706;18.344;2023-07-02T04:26:30;4.55;;;3.75;;
58414;SDS011;44210;42.706;18.344;2023-07-02T04:28:56;4.65;;;3.78;;
58414;SDS011;44210;42.706;18.344;2023-07-02T04:31:23;5.70;;;4.80;;
58414;SDS011;44210;42.706;18.344;2023-07-02T04:33:49;5.60;;;4.47;;
58414;SDS011;44210;42.706;18.344;2023-07-02T04:36:15;4.90;;;3.80;;
58414;SDS011;44210;42.706;18.344;2023-07-02T04:38:41;5.15;;;4.15;;
58414;SDS011;44210;42.706;18.344;2023-07-02T04:41:07;4.20;;;3.80;;
58414;SDS011;44210;42.706;18.344;2023-07-02T04:43:35;4.47;;;4.00;;
58414;SDS011;44210;42.706;18.344;2023-07-02T04:46:01;4.30;;;3.90;;
58414;SDS011;44210;42.706;18.344;2023-07-02T04:48:28;5.03;;;3.65;;
58414;SDS011;44210;42.706;18.344;2023-07-02T04:50:54;4.85;;;4.28;;
58414;SDS011;44210;42.706;18.344;2023-07-02T04:53:20;4.20;;;3.80;;
58414;SDS011;44210;42.706;18.344;2023-07-02T04:55:46;4.97;;;3.40;;
58414;SDS011;44210;42.706;18.344;2023-07-02T04:58:12;5.65;;;3.30;;
58414;SDS011;44210;42.706;18.344;2023-07-02T05:00:38;5.70;;;3.50;;
58414;SDS011;44210;42.706;18.344;2023-07-02T05:03:04;4.07;;;3.38;;
58414;SDS011;44210;42.706;18.344;2023-07-02T05:05:30;4.15;;;3.65;;
58414;SDS011;44210;42.706;18.344;2023-07-02T05:07:56;4.03;;;3.42;;
58414;SDS011;44210;42.706;18.344;2023-07-02T05:10:23;3.88;;;2.95;;
58414;SDS011;44210;42.706;18.344;2023-07-02T05:12:49;4.18;;;3.10;;
58414;SDS011;44210;42.706;18.344;2023-07-02T05:15:15;5.63;;;2.90;;
58414;SDS011;44210;42.706;18.344;2023-07-02T05:17:41;5.63;;;3.38;;
58414;SDS011;44210;42.706;18.344;2023-07-02T05:20:07;4.45;;;3.45;;
58414;SDS011;44210;42.706;18.344;2023-07-02T05:22:34;4.55;;;3.33;;
58414;SDS011;44210;42.706;18.344;2023-07-02T05:25:00;4.28;;;3.30;;
58414;SDS011;44210;42.706;18.344;2023-07-02T05:27:26;4.82;;;3.45;;
58414;SDS011;44210;42.706;18.344;2023-07-02T05:29:52;5.97;;;3.40;;
58414;SDS011;44210;42.706;18.344;2023-07-02T05:32:18;4.07;;;3.40;;
58414;SDS011;44210;42.706;18.344;2023-07-02T05:34:44;5.40;;;3.05;;
58414;SDS011;44210;42.706;18.344;2023-07-02T05:37:10;5.20;;;3.53;;
58414;SDS011;44210;42.706;18.344;2023-07-02T05:39:36;3.40;;;3.10;;
58414;SDS011;44210;42.706;18.344;2023-07-02T05:42:03;5.65;;;3.10;;
58414;SDS011;44210;42.706;18.344;2023-07-02T05:44:29;5.88;;;3.28;;
58414;SDS011;44210;42.706;18.344;2023-07-02T05:46:55;4.13;;;3.70;;
58414;SDS011;44210;42.706;18.344;2023-07-02T05:49:21;4.15;;;2.95;;
58414;SDS011;44210;42.706;18.344;2023-07-02T05:51:48;5.03;;;3.67;;
58414;SDS011;44210;42.706;18.344;2023-07-02T05:54:14;6.22;;;3.42;;
58414;SDS011;44210;42.706;18.344;2023-07-02T05:56:40;4.38;;;3.58;;
58414;SDS011;44210;42.706;18.344;2023-07-02T05:59:06;4.30;;;3.05;;
58414;SDS011;44210;42.706;18.344;2023-07-02T06:01:32;10.77;;;3.80;;
58414;SDS011;44210;42.706;18.344;2023-07-02T06:03:58;5.30;;;3.53;;
58414;SDS011;44210;42.706;18.344;2023-07-02T06:06:26;5.88;;;3.38;;
58414;SDS011;44210;42.706;18.344;2023-07-02T06:08:52;5.10;;;3.30;;
58414;SDS011;44210;42.706;18.344;2023-07-02T06:11:18;4.32;;;3.65;;
58414;SDS011;44210;42.706;18.344;2023-07-02T06:13:44;3.83;;;3.22;;
58414;SDS011;44210;42.706;18.344;2023-07-02T06:16:10;5.57;;;3.78;;
58414;SDS011;44210;42.706;18.344;2023-07-02T06:18:36;3.78;;;3.15;;
58414;SDS011;44210;42.706;18.344;2023-07-02T06:21:02;4.50;;;3.40;;
58414;SDS011;44210;42.706;18.344;2023-07-02T06:23:29;5.50;;;3.58;;
58414;SDS011;44210;42.706;18.344;2023-07-02T06:25:55;4.82;;;4.32;;
58414;SDS011;44210;42.706;18.344;2023-07-02T06:28:25;7.60;;;3.55;;
58414;SDS011;44210;42.706;18.344;2023-07-02T06:30:51;4.40;;;4.00;;
58414;SDS011;44210;42.706;18.344;2023-07-02T06:33:17;4.30;;;3.55;;
58414;SDS011;44210;42.706;18.344;2023-07-02T06:35:43;4.25;;;3.40;;
58414;SDS011;44210;42.706;18.344;2023-07-02T06:38:09;4.65;;;3.63;;
58414;SDS011;44210;42.706;18.344;2023-07-02T06:40:35;6.80;;;4.30;;
58414;SDS011;44210;42.706;18.344;2023-07-02T06:43:01;5.00;;;3.35;;
58414;SDS011;44210;42.706;18.344;2023-07-02T06:45:27;6.18;;;3.78;;
58414;SDS011;44210;42.706;18.344;2023-07-02T06:47:53;4.72;;;3.95;;
58414;SDS011;44210;42.706;18.344;2023-07-02T06:50:19;3.83;;;3.30;;
58414;SDS011;44210;42.706;18.344;2023-07-02T06:52:47;4.05;;;3.65;;
58414;SDS011;44210;42.706;18.344;2023-07-02T06:55:13;6.63;;;3.67;;
58414;SDS011;44210;42.706;18.344;2023-07-02T06:57:45;5.38;;;3.60;;
58414;SDS011;44210;42.706;18.344;2023-07-02T07:00:12;4.20;;;3.53;;
58414;SDS011;44210;42.706;18.344;2023-07-02T07:02:38;5.18;;;3.70;;
58414;SDS011;44210;42.706;18.344;2023-07-02T07:05:04;5.10;;;4.13;;
58414;SDS011;44210;42.706;18.344;2023-07-02T07:07:30;7.38;;;3.67;;
58414;SDS011;44210;42.706;18.344;2023-07-02T07:09:56;6.65;;;4.18;;
58414;SDS011;44210;42.706;18.344;2023-07-02T07:12:22;22.65;;;4.90;;
58414;SDS011;44210;42.706;18.344;2023-07-02T07:14:48;5.82;;;4.82;;
58414;SDS011;44210;42.706;18.344;2023-07-02T07:17:14;9.50;;;6.85;;
58414;SDS011;44210;42.706;18.344;2023-07-02T07:19:40;8.20;;;4.25;;
58414;SDS011;44210;42.706;18.344;2023-07-02T07:22:06;7.50;;;5.22;;
58414;SDS011;44210;42.706;18.344;2023-07-02T07:24:34;8.20;;;6.03;;
58414;SDS011;44210;42.706;18.344;2023-07-02T07:27:00;6.88;;;5.00;;
58414;SDS011;44210;42.706;18.344;2023-07-02T07:29:26;7.07;;;5.22;;
58414;SDS011;44210;42.706;18.344;2023-07-02T07:31:52;10.07;;;7.93;;
58414;SDS011;44210;42.706;18.344;2023-07-02T07:34:18;13.30;;;9.18;;
58414;SDS011;44210;42.706;18.344;2023-07-02T07:36:44;12.25;;;7.78;;
58414;SDS011;44210;42.706;18.344;2023-07-02T07:39:10;12.50;;;9.88;;
58414;SDS011;44210;42.706;18.344;2023-07-02T07:41:36;8.95;;;5.35;;
58414;SDS011;44210;42.706;18.344;2023-07-02T07:44:02;9.40;;;6.15;;
58414;SDS011;44210;42.706;18.344;2023-07-02T07:46:29;7.30;;;5.80;;
58414;SDS011;44210;42.706;18.344;2023-07-02T07:48:55;8.85;;;7.70;;
58414;SDS011;44210;42.706;18.344;2023-07-02T07:51:21;10.38;;;5.53;;
58414;SDS011;44210;42.706;18.344;2023-07-02T07:53:47;8.82;;;6.13;;
58414;SDS011;44210;42.706;18.344;2023-07-02T07:56:13;8.45;;;5.53;;
58414;SDS011;44210;42.706;18.344;2023-07-02T07:58:39;9.45;;;6.38;;
58414;SDS011;44210;42.706;18.344;2023-07-02T08:01:05;11.48;;;6.55;;
58414;SDS011;44210;42.706;18.344;2023-07-02T08:03:31;8.18;;;6.85;;
58414;SDS011;44210;42.706;18.344;2023-07-02T08:05:57;9.00;;;6.70;;
58414;SDS011;44210;42.706;18.344;2023-07-02T08:08:23;11.48;;;6.35;;
58414;SDS011;44210;42.706;18.344;2023-07-02T08:10:49;7.85;;;5.93;;
58414;SDS011;44210;42.706;18.344;2023-07-02T08:13:16;9.10;;;6.15;;
58414;SDS011;44210;42.706;18.344;2023-07-02T08:15:42;6.82;;;5.50;;
58414;SDS011;44210;42.706;18.344;2023-07-02T08:18:08;9.30;;;6.60;;
58414;SDS011;44210;42.706;18.344;2023-07-02T08:20:36;9.52;;;6.82;;
58414;SDS011;44210;42.706;18.344;2023-07-02T08:23:03;8.23;;;6.20;;
58414;SDS011;44210;42.706;18.344;2023-07-02T08:25:29;7.72;;;6.40;;
58414;SDS011;44210;42.706;18.344;2023-07-02T08:27:56;11.85;;;6.68;;
58414;SDS011;44210;42.706;18.344;2023-07-02T08:30:22;6.95;;;5.80;;
58414;SDS011;44210;42.706;18.344;2023-07-02T08:32:48;6.97;;;5.70;;
58414;SDS011;44210;42.706;18.344;2023-07-02T08:35:14;8.25;;;6.35;;
58414;SDS011;44210;42.706;18.344;2023-07-02T08:37:40;9.18;;;6.72;;
58414;SDS011;44210;42.706;18.344;2023-07-02T08:40:14;10.07;;;6.43;;
58414;SDS011;44210;42.706;18.344;2023-07-02T08:42:41;10.80;;;6.47;;
58414;SDS011;44210;42.706;18.344;2023-07-02T08:45:07;7.40;;;6.60;;
58414;SDS011;44210;42.706;18.344;2023-07-02T08:47:34;10.30;;;7.00;;
58414;SDS011;44210;42.706;18.344;2023-07-02T08:50:01;9.10;;;6.38;;
58414;SDS011;44210;42.706;18.344;2023-07-02T08:52:28;9.13;;;6.68;;
58414;SDS011;44210;42.706;18.344;2023-07-02T08:54:54;11.93;;;6.50;;
58414;SDS011;44210;42.706;18.344;2023-07-02T08:57:20;10.60;;;6.28;;
58414;SDS011;44210;42.706;18.344;2023-07-02T08:59:46;12.55;;;6.72;;
58414;SDS011;44210;42.706;18.344;2023-07-02T09:02:14;8.75;;;6.57;;
58414;SDS011;44210;42.706;18.344;2023-07-02T09:04:40;7.93;;;6.28;;
58414;SDS011;44210;42.706;18.344;2023-07-02T09:07:07;9.65;;;6.20;;
58414;SDS011;44210;42.706;18.344;2023-07-02T09:09:43;7.80;;;6.38;;
58414;SDS011;44210;42.706;18.344;2023-07-02T09:12:21;7.93;;;6.18;;
58414;SDS011;44210;42.706;18.344;2023-07-02T09:14:53;10.10;;;6.60;;
58414;SDS011;44210;42.706;18.344;2023-07-02T09:17:19;8.95;;;6.70;;
58414;SDS011;44210;42.706;18.344;2023-07-02T09:19:49;8.00;;;6.32;;
58414;SDS011;44210;42.706;18.344;2023-07-02T09:22:16;8.45;;;6.18;;
58414;SDS011;44210;42.706;18.344;2023-07-02T09:24:50;7.75;;;5.90;;
58414;SDS011;44210;42.706;18.344;2023-07-02T09:27:17;11.95;;;6.53;;
58414;SDS011;44210;42.706;18.344;2023-07-02T09:29:43;7.80;;;6.45;;
58414;SDS011;44210;42.706;18.344;2023-07-02T09:32:09;8.55;;;6.55;;
58414;SDS011;44210;42.706;18.344;2023-07-02T09:34:36;9.70;;;7.03;;
58414;SDS011;44210;42.706;18.344;2023-07-02T09:37:03;11.63;;;6.88;;
58414;SDS011;44210;42.706;18.344;2023-07-02T09:39:33;7.68;;;6.05;;
58414;SDS011;44210;42.706;18.344;2023-07-02T09:42:01;7.65;;;5.72;;
58414;SDS011;44210;42.706;18.344;2023-07-02T09:44:27;8.13;;;6.57;;
58414;SDS011;44210;42.706;18.344;2023-07-02T09:47:16;13.63;;;7.53;;
58414;SDS011;44210;42.706;18.344;2023-07-02T09:49:52;11.27;;;6.85;;
58414;SDS011;44210;42.706;18.344;2023-07-02T09:52:20;11.15;;;6.70;;
58414;SDS011;44210;42.706;18.344;2023-07-02T09:54:46;11.07;;;6.57;;
58414;SDS011;44210;42.706;18.344;2023-07-02T09:57:12;7.00;;;6.10;;
58414;SDS011;44210;42.706;18.344;2023-07-02T09:59:38;10.60;;;6.50;;
58414;SDS011;44210;42.706;18.344;2023-07-02T10:02:05;12.30;;;7.10;;
58414;SDS011;44210;42.706;18.344;2023-07-02T10:04:43;10.68;;;6.18;;
58414;SDS011;44210;42.706;18.344;2023-07-02T10:07:10;10.45;;;6.75;;
58414;SDS011;44210;42.706;18.344;2023-07-02T10:09:41;11.25;;;7.05;;
58414;SDS011;44210;42.706;18.344;2023-07-02T10:14:43;9.48;;;6.63;;
58414;SDS011;44210;42.706;18.344;2023-07-02T10:17:09;13.75;;;9.07;;
58414;SDS011;44210;42.706;18.344;2023-07-02T10:19:35;15.98;;;12.77;;
58414;SDS011;44210;42.706;18.344;2023-07-02T10:22:02;12.63;;;8.75;;
58414;SDS011;44210;42.706;18.344;2023-07-02T10:24:28;9.45;;;6.60;;
58414;SDS011;44210;42.706;18.344;2023-07-02T10:26:55;10.80;;;6.25;;
58414;SDS011;44210;42.706;18.344;2023-07-02T10:29:22;8.07;;;6.60;;
58414;SDS011;44210;42.706;18.344;2023-07-02T10:31:49;8.32;;;6.03;;
58414;SDS011;44210;42.706;18.344;2023-07-02T10:34:16;8.75;;;5.50;;
58414;SDS011;44210;42.706;18.344;2023-07-02T10:36:42;9.60;;;6.40;;
58414;SDS011;44210;42.706;18.344;2023-07-02T10:39:08;9.23;;;5.50;;
58414;SDS011;44210;42.706;18.344;2023-07-02T10:41:34;8.50;;;6.90;;
58414;SDS011;44210;42.706;18.344;2023-07-02T10:44:07;8.95;;;6.88;;
58414;SDS011;44210;42.706;18.344;2023-07-02T10:46:34;10.02;;;5.85;;
58414;SDS011;44210;42.706;18.344;2023-07-02T10:49:00;7.25;;;5.30;;
58414;SDS011;44210;42.706;18.344;2023-07-02T10:51:26;10.27;;;5.78;;
58414;SDS011;44210;42.706;18.344;2023-07-02T10:53:58;8.43;;;5.55;;
58414;SDS011;44210;42.706;18.344;2023-07-02T10:56:24;8.00;;;5.63;;
58414;SDS011;44210;42.706;18.344;2023-07-02T10:58:54;8.32;;;5.80;;
58414;SDS011;44210;42.706;18.344;2023-07-02T11:01:30;9.38;;;6.55;;
58414;SDS011;44210;42.706;18.344;2023-07-02T11:04:00;8.50;;;5.95;;
58414;SDS011;44210;42.706;18.344;2023-07-02T11:06:27;11.43;;;6.78;;
58414;SDS011;44210;42.706;18.344;2023-07-02T11:08:53;9.65;;;6.03;;
58414;SDS011;44210;42.706;18.344;2023-07-02T11:11:22;10.20;;;6.05;;
58414;SDS011;44210;42.706;18.344;2023-07-02T11:13:49;7.40;;;5.65;;
58414;SDS011;44210;42.706;18.344;2023-07-02T11:16:25;10.10;;;5.75;;
58414;SDS011;44210;42.706;18.344;2023-07-02T11:19:06;9.90;;;5.60;;
58414;SDS011;44210;42.706;18.344;2023-07-02T11:21:36;10.77;;;6.55;;
58414;SDS011;44210;42.706;18.344;2023-07-02T11:24:03;6.93;;;5.28;;
58414;SDS011;44210;42.706;18.344;2023-07-02T11:26:38;7.10;;;5.47;;
58414;SDS011;44210;42.706;18.344;2023-07-02T11:29:07;7.88;;;5.78;;
58414;SDS011;44210;42.706;18.344;2023-07-02T11:31:35;7.20;;;5.93;;
58414;SDS011;44210;42.706;18.344;2023-07-02T11:34:01;9.13;;;6.35;;
58414;SDS011;44210;42.706;18.344;2023-07-02T11:36:27;7.32;;;5.68;;
58414;SDS011;44210;42.706;18.344;2023-07-02T11:38:54;7.10;;;6.07;;
58414;SDS011;44210;42.706;18.344;2023-07-02T11:41:20;8.55;;;5.78;;
58414;SDS011;44210;42.706;18.344;2023-07-02T11:43:47;6.55;;;5.60;;
58414;SDS011;44210;42.706;18.344;2023-07-02T11:46:13;7.05;;;6.20;;
58414;SDS011;44210;42.706;18.344;2023-07-02T11:48:40;7.30;;;5.40;;
58414;SDS011;44210;42.706;18.344;2023-07-02T11:51:06;7.70;;;6.22;;
58414;SDS011;44210;42.706;18.344;2023-07-02T11:53:32;9.10;;;5.97;;
58414;SDS011;44210;42.706;18.344;2023-07-02T11:55:58;8.85;;;6.32;;
58414;SDS011;44210;42.706;18.344;2023-07-02T11:58:24;6.93;;;5.90;;
58414;SDS011;44210;42.706;18.344;2023-07-02T12:00:50;7.75;;;6.10;;
58414;SDS011;44210;42.706;18.344;2023-07-02T12:03:16;7.00;;;5.95;;
58414;SDS011;44210;42.706;18.344;2023-07-02T12:05:43;10.20;;;6.25;;
58414;SDS011;44210;42.706;18.344;2023-07-02T12:08:09;6.65;;;5.50;;
58414;SDS011;44210;42.706;18.344;2023-07-02T12:10:35;8.63;;;5.68;;
58414;SDS011;44210;42.706;18.344;2023-07-02T12:13:01;7.70;;;5.68;;
58414;SDS011;44210;42.706;18.344;2023-07-02T12:15:28;6.93;;;5.68;;
58414;SDS011;44210;42.706;18.344;2023-07-02T12:17:55;8.98;;;6.00;;
58414;SDS011;44210;42.706;18.344;2023-07-02T12:20:21;10.93;;;6.80;;
58414;SDS011;44210;42.706;18.344;2023-07-02T12:22:47;8.25;;;5.50;;
58414;SDS011;44210;42.706;18.344;2023-07-02T12:25:14;8.35;;;6.32;;
58414;SDS011;44210;42.706;18.344;2023-07-02T12:27:40;7.88;;;6.20;;
58414;SDS011;44210;42.706;18.344;2023-07-02T12:30:07;8.88;;;6.47;;
58414;SDS011;44210;42.706;18.344;2023-07-02T12:32:33;8.10;;;5.85;;
58414;SDS011;44210;42.706;18.344;2023-07-02T12:34:59;8.40;;;6.47;;
58414;SDS011;44210;42.706;18.344;2023-07-02T12:37:26;11.07;;;6.05;;
58414;SDS011;44210;42.706;18.344;2023-07-02T12:39:52;8.82;;;5.75;;
58414;SDS011;44210;42.706;18.344;2023-07-02T12:42:18;7.47;;;6.10;;
58414;SDS011;44210;42.706;18.344;2023-07-02T12:44:44;8.85;;;6.22;;
58414;SDS011;44210;42.706;18.344;2023-07-02T12:47:10;11.25;;;6.18;;
58414;SDS011;44210;42.706;18.344;2023-07-02T12:49:36;9.13;;;6.07;;
58414;SDS011;44210;42.706;18.344;2023-07-02T12:52:02;9.88;;;6.68;;
58414;SDS011;44210;42.706;18.344;2023-07-02T12:54:29;6.63;;;5.68;;
58414;SDS011;44210;42.706;18.344;2023-07-02T12:56:55;8.27;;;5.90;;
58414;SDS011;44210;42.706;18.344;2023-07-02T12:59:21;8.25;;;5.93;;
58414;SDS011;44210;42.706;18.344;2023-07-02T13:01:47;7.63;;;6.07;;
58414;SDS011;44210;42.706;18.344;2023-07-02T13:04:13;10.57;;;6.43;;
58414;SDS011;44210;42.706;18.344;2023-07-02T13:06:40;9.38;;;6.05;;
58414;SDS011;44210;42.706;18.344;2023-07-02T13:09:07;8.32;;;6.47;;
58414;SDS011;44210;42.706;18.344;2023-07-02T13:11:33;9.43;;;6.30;;
58414;SDS011;44210;42.706;18.344;2023-07-02T13:13:59;8.82;;;6.65;;
58414;SDS011;44210;42.706;18.344;2023-07-02T13:16:25;7.30;;;5.97;;
58414;SDS011;44210;42.706;18.344;2023-07-02T13:18:51;9.52;;;5.72;;
58414;SDS011;44210;42.706;18.344;2023-07-02T13:21:20;8.77;;;6.35;;
58414;SDS011;44210;42.706;18.344;2023-07-02T13:23:46;13.48;;;6.60;;
58414;SDS011;44210;42.706;18.344;2023-07-02T13:26:12;8.32;;;6.00;;
58414;SDS011;44210;42.706;18.344;2023-07-02T13:28:38;9.52;;;6.13;;
58414;SDS011;44210;42.706;18.344;2023-07-02T13:31:05;11.00;;;6.65;;
58414;SDS011;44210;42.706;18.344;2023-07-02T13:33:33;7.18;;;6.05;;
58414;SDS011;44210;42.706;18.344;2023-07-02T13:35:59;8.10;;;6.55;;
58414;SDS011;44210;42.706;18.344;2023-07-02T13:38:25;9.27;;;5.93;;
58414;SDS011;44210;42.706;18.344;2023-07-02T13:40:51;7.40;;;6.00;;
58414;SDS011;44210;42.706;18.344;2023-07-02T13:43:17;8.43;;;5.68;;
58414;SDS011;44210;42.706;18.344;2023-07-02T13:45:44;8.48;;;6.03;;
58414;SDS011;44210;42.706;18.344;2023-07-02T13:48:10;6.93;;;5.93;;
58414;SDS011;44210;42.706;18.344;2023-07-02T13:50:36;6.50;;;5.70;;
58414;SDS011;44210;42.706;18.344;2023-07-02T13:53:02;7.70;;;5.53;;
58414;SDS011;44210;42.706;18.344;2023-07-02T13:55:28;7.50;;;5.72;;
58414;SDS011;44210;42.706;18.344;2023-07-02T13:57:56;7.13;;;5.60;;
58414;SDS011;44210;42.706;18.344;2023-07-02T14:00:24;7.18;;;6.05;;
58414;SDS011;44210;42.706;18.344;2023-07-02T14:02:56;10.63;;;6.47;;
58414;SDS011;44210;42.706;18.344;2023-07-02T14:05:23;9.70;;;6.50;;
58414;SDS011;44210;42.706;18.344;2023-07-02T14:07:50;11.07;;;5.93;;
58414;SDS011;44210;42.706;18.344;2023-07-02T14:10:16;8.55;;;5.85;;
58414;SDS011;44210;42.706;18.344;2023-07-02T14:12:42;9.50;;;6.32;;
58414;SDS011;44210;42.706;18.344;2023-07-02T14:15:09;8.98;;;5.82;;
58414;SDS011;44210;42.706;18.344;2023-07-02T14:17:35;8.25;;;5.50;;
58414;SDS011;44210;42.706;18.344;2023-07-02T14:20:02;7.20;;;5.75;;
58414;SDS011;44210;42.706;18.344;2023-07-02T14:22:28;7.35;;;5.70;;
58414;SDS011;44210;42.706;18.344;2023-07-02T14:24:55;7.95;;;5.45;;
58414;SDS011;44210;42.706;18.344;2023-07-02T14:27:21;7.47;;;5.82;;
58414;SDS011;44210;42.706;18.344;2023-07-02T14:29:47;8.95;;;5.75;;
58414;SDS011;44210;42.706;18.344;2023-07-02T14:32:13;7.28;;;5.75;;
58414;SDS011;44210;42.706;18.344;2023-07-02T14:34:40;7.30;;;5.60;;
58414;SDS011;44210;42.706;18.344;2023-07-02T14:37:06;7.78;;;5.57;;
58414;SDS011;44210;42.706;18.344;2023-07-02T14:39:32;8.40;;;5.65;;
58414;SDS011;44210;42.706;18.344;2023-07-02T14:41:58;7.32;;;5.28;;
58414;SDS011;44210;42.706;18.344;2023-07-02T14:44:24;7.47;;;5.65;;
58414;SDS011;44210;42.706;18.344;2023-07-02T14:46:50;9.13;;;5.32;;
58414;SDS011;44210;42.706;18.344;2023-07-02T14:49:17;6.50;;;5.20;;
58414;SDS011;44210;42.706;18.344;2023-07-02T14:51:43;8.57;;;5.50;;
58414;SDS011;44210;42.706;18.344;2023-07-02T14:54:09;7.90;;;6.10;;